Terminal Aerodrome Forecast
Issued by NWS

Home | Current Version | Previous Version | Graphics & Text | Print | Product List | Glossary On
Versions: 1 2 3 4 5 6 7 8 9 10 11 12 13 14
000
FTUS45 KRIW 292322
TAFBPI
TAF
KBPI 292322Z 3000/3024 VRB12G20KT P6SM VCTS FEW100CB SCT250
     FM300500 VRB05KT P6SM SCT150
     FM301900 30011G18KT P6SM VCSH BKN100=

USA.gov is the U.S. government's official web portal to all federal, state and local government web resources and services.